createdAt,value
2023-01-26T00:05:38.463Z,97458.74
2023-01-26T00:15:56.309Z,97448.50
2023-01-26T00:26:37.576Z,97452.05
2023-01-26T00:37:56.305Z,97442.27
2023-01-26T00:49:03.199Z,97429.36
2023-01-26T01:00:20.085Z,97423.46
2023-01-26T01:11:27.644Z,97406.76
2023-01-26T01:22:22.630Z,97395.73
2023-01-26T01:33:47.252Z,97381.88
2023-01-26T01:45:17.128Z,97377.39
2023-01-26T01:56:35.029Z,97362.30
2023-01-26T02:07:34.116Z,97358.30
2023-01-26T02:18:41.674Z,97344.75
2023-01-26T02:29:46.206Z,97332.26
2023-01-26T02:40:39.388Z,97326.80
2023-01-26T02:50:51.565Z,97330.08
2023-01-26T03:01:32.556Z,97325.20
2023-01-26T03:11:45.738Z,97318.55
2023-01-26T03:22:21.047Z,97300.70
2023-01-26T03:32:59.800Z,97297.40
2023-01-26T03:43:54.789Z,97290.58
2023-01-26T03:54:34.385Z,97293.41
2023-01-26T04:05:12.145Z,97285.84
2023-01-26T04:16:08.396Z,97276.92
2023-01-26T04:26:55.823Z,97261.74
2023-01-26T04:38:00.581Z,97249.72
2023-01-26T04:48:53.463Z,97237.20
2023-01-26T04:59:26.539Z,97235.05
2023-01-26T05:10:15.930Z,97225.98
2023-01-26T05:21:04.248Z,97224.31
2023-01-26T05:32:10.963Z,97219.71
2023-01-26T05:42:35.457Z,97219.14
2023-01-26T05:53:08.167Z,97228.23
2023-01-26T06:03:49.058Z,97226.33
2023-01-26T06:14:56.658Z,97215.75
2023-01-26T06:25:21.842Z,97213.50
2023-01-26T06:36:36.345Z,97213.90
2023-01-26T06:47:38.202Z,97206.61
2023-01-26T06:58:12.726Z,97216.14
2023-01-26T07:08:55.655Z,97215.83
2023-01-26T07:19:21.308Z,97207.88
2023-01-26T07:29:37.371Z,97202.08
2023-01-26T07:39:55.882Z,97202.08
2023-01-26T07:50:24.834Z,97204.86
2023-01-26T08:01:11.991Z,97189.59
2023-01-26T08:11:39.176Z,97179.48
2023-01-26T08:21:59.340Z,97185.67
2023-01-26T08:32:51.249Z,97184.54
2023-01-26T08:43:35.469Z,97193.55
2023-01-26T08:54:09.835Z,97196.89
2023-01-26T09:05:03.708Z,97199.58
2023-01-26T09:16:03.929Z,97199.08
2023-01-26T09:26:31.707Z,97197.79
2023-01-26T09:37:12.247Z,97192.40
2023-01-26T09:48:09.060Z,97179.45
2023-01-26T09:59:40.952Z,97167.27
2023-01-26T10:10:24.140Z,97154.65
2023-01-26T10:20:58.866Z,97136.02
2023-01-26T10:31:13.016Z,97126.94
2023-01-26T10:41:23.144Z,97117.80
2023-01-26T10:51:32.638Z,97113.19
2023-01-26T11:01:59.390Z,97099.73
2023-01-26T11:12:11.181Z,97090.19
2023-01-26T11:22:53.724Z,97079.23
2023-01-26T11:33:11.010Z,97073.63
2023-01-26T11:43:27.568Z,97060.55
2023-01-26T11:54:18.106Z,97046.58
2023-01-26T12:04:38.607Z,97035.92
2023-01-26T12:14:59.715Z,97034.98
2023-01-26T12:25:45.904Z,97017.03
2023-01-26T12:36:17.592Z,97005.33
2023-01-26T12:46:25.483Z,97006.30
2023-01-26T12:57:05.211Z,96996.44
2023-01-26T13:07:31.585Z,96987.51
2023-01-26T13:17:49.487Z,96988.17
2023-01-26T13:28:13.881Z,96991.17
2023-01-26T13:38:25.161Z,96992.86
2023-01-26T13:48:47.831Z,96992.67
2023-01-26T13:59:23.569Z,96993.63
2023-01-26T14:10:34.217Z,96989.11
2023-01-26T14:21:35.423Z,96988.66
2023-01-26T14:32:29.836Z,96990.04
2023-01-26T14:43:00.541Z,97000.50
2023-01-26T14:53:28.782Z,96999.73
2023-01-26T15:03:43.343Z,96992.64
2023-01-26T15:13:52.566Z,96986.75
2023-01-26T15:23:59.072Z,96992.84
2023-01-26T15:34:07.567Z,96991.23
2023-01-26T15:44:21.964Z,96977.75
2023-01-26T15:54:36.541Z,96971.88
2023-01-26T16:04:47.250Z,96976.27
2023-01-26T16:14:56.783Z,96973.82
2023-01-26T16:25:00.909Z,96970.77
2023-01-26T16:35:16.659Z,96969.17
2023-01-26T16:45:27.193Z,96960.09
2023-01-26T16:55:38.164Z,96962.45
2023-01-26T17:05:43.831Z,96956.00
2023-01-26T17:16:19.163Z,96946.19
2023-01-26T17:26:36.549Z,96945.27
2023-01-26T17:37:17.801Z,96948.42
2023-01-26T17:47:45.229Z,96946.55
2023-01-26T17:58:21.944Z,96945.36
2023-01-26T18:08:30.801Z,96948.73
2023-01-26T18:19:09.786Z,96958.83
2023-01-26T18:29:55.403Z,96964.63
2023-01-26T18:40:24.659Z,96969.69
2023-01-26T18:50:57.518Z,96974.21
2023-01-26T19:01:24.354Z,96974.52
2023-01-26T19:12:16.291Z,96977.98
2023-01-26T19:22:25.034Z,96964.42
2023-01-26T19:32:33.716Z,96959.05
2023-01-26T19:43:11.001Z,96952.29
2023-01-26T19:53:47.511Z,96942.91
2023-01-26T20:04:23.058Z,96934.43
2023-01-26T20:15:18.390Z,96930.65
2023-01-26T20:26:33.874Z,96927.80
2023-01-26T20:37:11.251Z,96928.97
2023-01-26T20:47:58.117Z,96933.25
2023-01-26T20:58:34.199Z,96932.42
2023-01-26T21:09:36.549Z,96927.80
2023-01-26T21:20:12.986Z,96921.42
2023-01-26T21:31:09.830Z,96916.12
2023-01-26T21:41:48.283Z,96914.52
2023-01-26T21:53:19.427Z,96911.71
2023-01-26T22:03:52.589Z,96904.39
2023-01-26T22:13:59.680Z,96892.13
2023-01-26T22:24:18.428Z,96883.64
2023-01-26T22:34:22.587Z,96887.20
2023-01-26T22:44:43.258Z,96872.20
2023-01-26T22:55:07.856Z,96862.23
2023-01-26T23:05:11.948Z,96859.30
2023-01-26T23:15:56.202Z,96864.10
2023-01-26T23:37:26.002Z,96870.89
2023-01-26T23:47:55.660Z,96872.51
2023-01-26T23:58:23.069Z,96872.27
